Terminal Aerodrome Forecast
Issued by NWS

Home | Current Version | Previous Version | Text Only | Print | Product List | Glossary On
Versions: 1 2 3 4 5 6 7 8 9 10 11 12 13 14 15 16 17 18 19 20 21 22
000
FTUS46 KLOX 311300 AAA
TAFSBP
TAF AMD
KSBP 311324Z 3113/0112 VRB03KT 3SM BR OVC002
     FM311600 VRB03KT 3SM BR BKN005
     FM311800 VRB03KT P6SM SKC
     FM312100 32009KT P6SM SKC
     FM010300 VRB03KT P6SM SKC=

USA.gov is the U.S. government's official web portal to all federal, state and local government web resources and services.